Terminal Aerodrome Forecast
Issued by NWS Wilmington, OH

Home | Current Version | Previous Version | Text Only | Print | Product List | Glossary On
Versions: 1 2 3 4 5 6 7 8 9 10 11 12 13 14 15 16 17 18 19 20 21 22 23 24 25 26 27 28 29 30
000
FTUS41 KILN 261900 AAA
TAFILN
TAF AMD
KILN 261928Z 2619/2718 01004KT P6SM BKN025
     FM270000 35004KT P6SM SCT025 BKN100
     FM270500 33005KT P6SM OVC015
     FM271500 31012KT P6SM BKN025=

USA.gov is the U.S. government's official web portal to all federal, state and local government web resources and services.